createdAt,value
2023-03-30T00:03:05.156Z,10.9
2023-03-30T00:05:08.428Z,10.8
2023-03-30T00:07:04.850Z,10.9
2023-03-30T00:09:05.679Z,10.9
2023-03-30T00:11:11.048Z,10.8
2023-03-30T00:13:05.606Z,10.7
2023-03-30T00:15:11.813Z,10.7
2023-03-30T00:17:06.118Z,10.8
2023-03-30T00:19:05.690Z,10.8
2023-03-30T00:21:06.691Z,10.8
2023-03-30T00:23:07.866Z,10.8
2023-03-30T00:25:07.801Z,10.8
2023-03-30T00:27:06.429Z,10.8
2023-03-30T00:29:04.757Z,10.9
2023-03-30T00:31:05.807Z,10.8
2023-03-30T00:33:05.302Z,10.9
2023-03-30T00:35:04.771Z,10.9
2023-03-30T00:39:07.770Z,11
2023-03-30T00:41:05.762Z,11
2023-03-30T00:43:05.698Z,11
2023-03-30T00:45:06.529Z,10.9
2023-03-30T00:47:06.251Z,10.9
2023-03-30T00:49:06.096Z,11
2023-03-30T00:51:05.771Z,10.9
2023-03-30T00:53:04.854Z,10.9
2023-03-30T00:55:07.825Z,11.1
2023-03-30T00:57:07.898Z,11.1
2023-03-30T00:59:06.016Z,11.1
2023-03-30T01:01:05.644Z,11.1
2023-03-30T01:03:05.829Z,11.1
2023-03-30T01:07:06.514Z,11.1
2023-03-30T01:09:04.799Z,11.1
2023-03-30T01:11:06.168Z,11.2
2023-03-30T01:13:06.043Z,11.3
2023-03-30T01:15:05.233Z,11.3
2023-03-30T01:17:05.259Z,11.3
2023-03-30T01:19:05.483Z,11.2
2023-03-30T01:21:05.896Z,11.2
2023-03-30T01:23:04.817Z,11.2
2023-03-30T01:25:04.791Z,11.2
2023-03-30T01:27:05.252Z,11.3
2023-03-30T01:29:04.812Z,11.4
2023-03-30T01:31:06.072Z,11.4
2023-03-30T01:33:05.834Z,11.4
2023-03-30T01:35:04.852Z,11.5
2023-03-30T01:37:05.805Z,11.4
2023-03-30T01:39:04.845Z,11.5
2023-03-30T01:41:05.464Z,11.5
2023-03-30T01:43:05.712Z,11.5
2023-03-30T01:45:05.825Z,11.5
2023-03-30T01:47:06.610Z,11.6
2023-03-30T01:51:06.692Z,11.4
2023-03-30T01:53:05.739Z,11.4
2023-03-30T01:55:05.632Z,11.4
2023-03-30T01:57:06.361Z,11.4
2023-03-30T01:59:05.131Z,11.3
2023-03-30T02:01:06.960Z,11.3
2023-03-30T02:03:05.336Z,11.3
2023-03-30T02:07:05.776Z,11.4
2023-03-30T02:09:05.330Z,11.4
2023-03-30T02:11:05.002Z,11.4
2023-03-30T02:13:04.833Z,11.3
2023-03-30T02:15:06.126Z,11.1
2023-03-30T02:17:05.831Z,11
2023-03-30T02:19:05.707Z,11
2023-03-30T02:21:05.123Z,10.9
2023-03-30T02:23:05.372Z,10.9
2023-03-30T02:25:05.032Z,11.1
2023-03-30T02:27:06.797Z,11.2
2023-03-30T02:29:05.931Z,11.1
2023-03-30T02:31:05.932Z,11.1
2023-03-30T02:33:05.513Z,11.1
2023-03-30T02:35:05.342Z,11.2
2023-03-30T02:37:05.859Z,11.2
2023-03-30T02:39:05.896Z,11.3
2023-03-30T02:41:05.499Z,11.3
2023-03-30T02:43:04.972Z,11.3
2023-03-30T02:45:06.418Z,11.2
2023-03-30T02:47:06.628Z,11.1
2023-03-30T02:49:05.861Z,11.1
2023-03-30T02:51:07.138Z,11.1
2023-03-30T02:53:05.351Z,11.1
2023-03-30T02:55:05.971Z,11.1
2023-03-30T02:57:06.393Z,11
2023-03-30T02:59:07.138Z,10.9
2023-03-30T03:01:06.735Z,11
2023-03-30T03:03:05.920Z,11.1
2023-03-30T03:05:05.396Z,10.9
2023-03-30T03:07:05.893Z,10.9
2023-03-30T03:09:06.279Z,10.9
2023-03-30T03:11:07.994Z,10.9
2023-03-30T03:13:05.895Z,10.9
2023-03-30T03:15:05.511Z,11
2023-03-30T03:17:05.139Z,11
2023-03-30T03:19:05.774Z,11.1
2023-03-30T03:21:05.582Z,11.1
2023-03-30T03:23:05.418Z,11.1
2023-03-30T03:25:06.317Z,11.1
2023-03-30T03:27:07.843Z,11
2023-03-30T03:29:05.833Z,11
2023-03-30T03:31:05.107Z,10.9
2023-03-30T03:33:07.061Z,10.9
2023-03-30T03:35:06.724Z,10.8
2023-03-30T03:37:05.974Z,10.8
2023-03-30T03:39:05.804Z,10.7
2023-03-30T03:41:05.615Z,10.8
2023-03-30T03:43:06.400Z,10.7
2023-03-30T03:45:05.957Z,10.8
2023-03-30T03:47:06.447Z,10.8
2023-03-30T03:49:06.806Z,10.7
2023-03-30T03:51:05.713Z,10.8
2023-03-30T03:53:04.762Z,10.9
2023-03-30T03:55:05.139Z,10.9
2023-03-30T03:57:04.684Z,10.8
2023-03-30T03:59:13.977Z,10.7
2023-03-30T04:01:07.783Z,10.7
2023-03-30T04:03:04.699Z,10.7
2023-03-30T04:05:05.910Z,10.7
2023-03-30T04:09:07.444Z,10.7
2023-03-30T04:11:04.778Z,10.7
2023-03-30T04:15:06.588Z,10.6
2023-03-30T04:17:05.207Z,10.6
2023-03-30T04:19:07.052Z,10.6
2023-03-30T04:21:05.262Z,10.5
2023-03-30T04:23:04.657Z,10.6
2023-03-30T04:25:18.159Z,10.6
2023-03-30T04:27:07.214Z,10.7
2023-03-30T04:29:07.633Z,10.6
2023-03-30T04:31:05.370Z,10.6
2023-03-30T04:33:04.879Z,10.6
2023-03-30T04:35:07.984Z,10.6
2023-03-30T04:37:05.988Z,10.6
2023-03-30T04:39:10.419Z,10.6
2023-03-30T04:41:06.069Z,10.5
2023-03-30T04:43:04.698Z,10.5
2023-03-30T04:45:05.961Z,10.5
2023-03-30T04:47:11.654Z,10.5
2023-03-30T04:49:07.253Z,10.4
2023-03-30T04:51:06.034Z,10.4
2023-03-30T04:55:04.662Z,10.4
2023-03-30T04:57:14.698Z,10.4
2023-03-30T04:59:05.948Z,10.5
2023-03-30T05:01:04.813Z,10.4
2023-03-30T05:03:07.401Z,10.5
2023-03-30T05:05:07.196Z,10.4
2023-03-30T05:07:07.430Z,10.4
2023-03-30T05:09:07.440Z,10.4
2023-03-30T05:13:04.641Z,10.4
2023-03-30T05:15:05.124Z,10.4
2023-03-30T05:17:07.386Z,10.4
2023-03-30T05:19:04.668Z,10.5
2023-03-30T05:21:05.958Z,10.5
2023-03-30T05:23:07.465Z,10.4
2023-03-30T05:25:07.853Z,10.5
2023-03-30T05:27:07.605Z,10.5
2023-03-30T05:29:04.647Z,10.5
2023-03-30T05:31:04.872Z,10.5
2023-03-30T05:33:04.792Z,10.5
2023-03-30T05:35:15.997Z,10.5
2023-03-30T05:37:05.001Z,10.6
2023-03-30T05:39:06.071Z,10.6
2023-03-30T05:41:06.099Z,10.6
2023-03-30T05:43:04.651Z,10.6
2023-03-30T05:45:04.650Z,10.6
2023-03-30T05:47:04.905Z,10.7
2023-03-30T05:49:04.774Z,10.7
2023-03-30T05:51:05.016Z,10.8
2023-03-30T05:53:04.666Z,10.8
2023-03-30T05:55:11.498Z,10.8
2023-03-30T05:57:05.113Z,10.8
2023-03-30T05:59:07.709Z,10.8
2023-03-30T06:01:04.737Z,10.8
2023-03-30T06:03:05.151Z,10.8
2023-03-30T06:05:04.951Z,10.8
2023-03-30T06:07:06.034Z,10.8
2023-03-30T06:09:04.643Z,10.8
2023-03-30T06:11:05.151Z,10.8
2023-03-30T06:13:06.269Z,10.8
2023-03-30T06:15:04.647Z,10.9
2023-03-30T06:17:05.656Z,10.9
2023-03-30T06:19:04.781Z,10.9
2023-03-30T06:23:05.415Z,10.9
2023-03-30T06:25:05.050Z,10.9
2023-03-30T06:27:04.874Z,10.9
2023-03-30T06:29:05.130Z,11
2023-03-30T06:31:06.364Z,11.1
2023-03-30T06:35:04.941Z,11.1
2023-03-30T06:37:05.018Z,11.2
2023-03-30T06:39:07.957Z,11.2
2023-03-30T06:41:04.831Z,11.3
2023-03-30T06:43:08.575Z,11.3
2023-03-30T06:45:04.687Z,11.3
2023-03-30T06:47:04.653Z,11.4
2023-03-30T06:49:04.643Z,11.4
2023-03-30T06:51:04.880Z,11.5
2023-03-30T06:53:04.900Z,11.6
2023-03-30T06:55:04.747Z,11.7
2023-03-30T06:57:04.832Z,11.7
2023-03-30T06:59:04.754Z,11.8
2023-03-30T07:01:04.872Z,11.9
2023-03-30T07:03:04.713Z,11.9
2023-03-30T07:05:04.723Z,12
2023-03-30T07:07:06.276Z,12.1
2023-03-30T07:13:04.712Z,11.8
2023-03-30T07:15:05.363Z,11.6
2023-03-30T07:17:04.740Z,11.6
2023-03-30T07:19:04.741Z,11.6
2023-03-30T07:21:12.801Z,11.7
2023-03-30T07:23:04.649Z,11.7
2023-03-30T07:25:04.743Z,11.8
2023-03-30T07:27:05.309Z,11.9
2023-03-30T07:29:04.953Z,11.8
2023-03-30T07:31:05.385Z,11.9
2023-03-30T07:33:05.021Z,11.9
2023-03-30T07:35:07.711Z,11.9
2023-03-30T07:37:05.106Z,11.8
2023-03-30T07:39:04.700Z,11.8
2023-03-30T07:41:04.974Z,11.8
2023-03-30T07:43:05.115Z,11.9
2023-03-30T07:45:05.396Z,12
2023-03-30T07:47:04.665Z,12.1
2023-03-30T07:49:04.673Z,12.2
2023-03-30T07:51:05.561Z,12.3
2023-03-30T07:53:04.780Z,12.3
2023-03-30T07:55:07.567Z,12.2
2023-03-30T07:57:04.762Z,12.1
2023-03-30T07:59:04.660Z,12.1
2023-03-30T08:03:04.766Z,12.1
2023-03-30T08:07:05.243Z,12.1
2023-03-30T08:09:04.678Z,12
2023-03-30T08:11:08.216Z,12
2023-03-30T08:13:05.342Z,12
2023-03-30T08:17:05.234Z,11.9
2023-03-30T08:19:05.664Z,11.9
2023-03-30T08:21:04.859Z,11.9
2023-03-30T08:23:05.491Z,11.9
2023-03-30T08:25:05.898Z,12
2023-03-30T08:27:04.661Z,12.1
2023-03-30T08:29:04.711Z,12.2
2023-03-30T08:31:05.508Z,12.3
2023-03-30T08:33:09.351Z,12.3
2023-03-30T08:35:05.152Z,12.4
2023-03-30T08:37:04.652Z,12.4
2023-03-30T08:39:04.803Z,12.4
2023-03-30T08:41:04.920Z,12.3
2023-03-30T08:43:05.153Z,12.3
2023-03-30T08:45:11.064Z,12.2
2023-03-30T08:47:05.056Z,12.1
2023-03-30T08:49:05.045Z,12.2
2023-03-30T08:51:08.361Z,12.4
2023-03-30T08:53:04.654Z,12.4
2023-03-30T08:59:04.752Z,12.5
2023-03-30T09:01:05.602Z,12.5
2023-03-30T09:05:04.828Z,12.6
2023-03-30T09:07:05.179Z,12.7
2023-03-30T09:13:05.397Z,12.9
2023-03-30T09:15:04.685Z,12.9
2023-03-30T09:17:04.695Z,12.8
2023-03-30T09:19:04.693Z,12.8
2023-03-30T09:21:06.381Z,12.8
2023-03-30T09:23:05.039Z,12.8
2023-03-30T09:25:05.565Z,12.8
2023-03-30T09:27:04.678Z,12.8
2023-03-30T09:29:04.651Z,12.8
2023-03-30T09:31:06.088Z,12.7
2023-03-30T09:33:04.738Z,12.6
2023-03-30T09:35:04.679Z,12.7
2023-03-30T09:37:05.182Z,12.7
2023-03-30T09:39:04.672Z,12.8
2023-03-30T09:41:04.762Z,12.8
2023-03-30T09:43:05.512Z,12.8
2023-03-30T09:45:04.723Z,12.8
2023-03-30T09:47:04.684Z,12.8
2023-03-30T09:49:05.135Z,12.7
2023-03-30T09:51:05.130Z,12.8
2023-03-30T09:53:08.383Z,12.7
2023-03-30T09:55:05.472Z,12.8
2023-03-30T09:57:05.505Z,12.8
2023-03-30T09:59:04.761Z,12.8
2023-03-30T10:01:05.042Z,12.8
2023-03-30T10:03:09.530Z,12.8
2023-03-30T10:05:04.650Z,12.9
2023-03-30T10:07:18.198Z,12.9
2023-03-30T10:09:04.782Z,12.9
2023-03-30T10:11:04.684Z,12.8
2023-03-30T10:13:05.506Z,12.6
2023-03-30T10:15:04.658Z,12.5
2023-03-30T10:17:05.111Z,12.6
2023-03-30T10:19:05.157Z,12.5
2023-03-30T10:21:04.762Z,12.5
2023-03-30T10:23:04.708Z,12.4
2023-03-30T10:25:06.128Z,12.5
2023-03-30T10:27:04.665Z,12.6
2023-03-30T10:29:05.595Z,12.6
2023-03-30T10:31:05.624Z,12.6
2023-03-30T10:33:04.702Z,12.3
2023-03-30T10:35:04.746Z,12.2
2023-03-30T10:37:05.143Z,12.2
2023-03-30T10:39:04.660Z,12.4
2023-03-30T10:41:05.441Z,12.5
2023-03-30T10:43:05.030Z,12.4
2023-03-30T10:45:04.690Z,12.4
2023-03-30T10:47:05.259Z,12.4
2023-03-30T10:49:04.660Z,12.3
2023-03-30T10:51:06.522Z,12.2
2023-03-30T10:53:04.672Z,12.1
2023-03-30T10:55:05.152Z,12
2023-03-30T10:57:04.848Z,11.9
2023-03-30T10:59:04.674Z,11.9
2023-03-30T11:01:04.703Z,11.8
2023-03-30T11:03:09.326Z,11.7
2023-03-30T11:07:05.648Z,11.7
2023-03-30T11:09:04.745Z,11.7
2023-03-30T11:11:05.013Z,11.6
2023-03-30T11:13:04.941Z,11.5
2023-03-30T11:15:06.058Z,11.5
2023-03-30T11:17:04.802Z,11.4
2023-03-30T11:19:04.672Z,11.4
2023-03-30T11:21:04.759Z,11.3
2023-03-30T11:23:04.704Z,11.2
2023-03-30T11:25:04.694Z,11.1
2023-03-30T11:27:04.673Z,11.1
2023-03-30T11:29:18.176Z,11.1
2023-03-30T11:31:04.688Z,10.9
2023-03-30T11:33:04.724Z,10.9
2023-03-30T11:35:05.208Z,10.9
2023-03-30T11:37:04.678Z,10.9
2023-03-30T11:39:05.114Z,10.9
2023-03-30T11:41:07.687Z,10.9
2023-03-30T11:43:04.672Z,10.9
2023-03-30T11:45:05.137Z,11
2023-03-30T11:47:08.349Z,11
2023-03-30T11:51:17.369Z,11.1
2023-03-30T11:53:05.046Z,11.1
2023-03-30T11:55:12.469Z,11.1
2023-03-30T11:57:05.216Z,11.1
2023-03-30T11:59:04.708Z,11.1
2023-03-30T12:01:05.148Z,11.1
2023-03-30T12:03:05.271Z,11.1
2023-03-30T12:05:06.237Z,11.2
2023-03-30T12:11:04.726Z,11.3
2023-03-30T12:13:05.125Z,11.3
2023-03-30T12:15:04.710Z,11.3
2023-03-30T12:17:04.790Z,11.3
2023-03-30T12:19:04.745Z,11.2
2023-03-30T12:21:05.186Z,11.2
2023-03-30T12:23:05.132Z,11.2
2023-03-30T12:27:07.012Z,11.3
2023-03-30T12:31:04.845Z,11.3
2023-03-30T12:33:05.185Z,11.5
2023-03-30T12:35:05.036Z,11.4
2023-03-30T12:39:04.713Z,11.2
2023-03-30T12:41:04.681Z,11.1
2023-03-30T12:43:04.759Z,11.2
2023-03-30T12:45:04.735Z,11.2
2023-03-30T12:47:06.978Z,11.2
2023-03-30T12:49:05.784Z,11.2
2023-03-30T12:51:04.865Z,11.1
2023-03-30T12:53:08.100Z,11.1
2023-03-30T12:55:07.487Z,11.1
2023-03-30T12:57:05.054Z,11.2
2023-03-30T12:59:04.710Z,11.3
2023-03-30T13:01:09.610Z,11.4
2023-03-30T13:03:05.567Z,11.4
2023-03-30T13:05:05.369Z,11.6
2023-03-30T13:07:05.162Z,11.6
2023-03-30T13:09:04.969Z,11.7
2023-03-30T13:11:05.984Z,11.7
2023-03-30T13:13:05.409Z,11.5
2023-03-30T13:15:05.149Z,11.4
2023-03-30T13:17:04.849Z,11.4
2023-03-30T13:21:04.982Z,11.5
2023-03-30T13:23:06.171Z,11.5
2023-03-30T13:25:04.723Z,11.7
2023-03-30T13:27:05.215Z,11.9
2023-03-30T13:29:11.808Z,12.1
2023-03-30T13:31:04.707Z,12.2
2023-03-30T13:33:05.007Z,12.2
2023-03-30T13:35:07.131Z,12.1
2023-03-30T13:39:05.326Z,12.2
2023-03-30T13:41:05.653Z,12.1
2023-03-30T13:43:04.690Z,12.3
2023-03-30T13:45:04.962Z,12.3
2023-03-30T13:47:04.772Z,12.2
2023-03-30T13:49:07.517Z,12.1
2023-03-30T13:51:04.713Z,12
2023-03-30T13:53:05.024Z,12.1
2023-03-30T13:55:06.568Z,12.1
2023-03-30T13:57:07.543Z,12.1
2023-03-30T13:59:04.673Z,12.1
2023-03-30T14:01:04.723Z,12.2
2023-03-30T14:03:04.721Z,12.1
2023-03-30T14:05:11.791Z,12.2
2023-03-30T14:07:07.502Z,12.1
2023-03-30T14:09:06.029Z,12.1
2023-03-30T14:13:04.818Z,12
2023-03-30T14:15:04.989Z,12
2023-03-30T14:17:04.880Z,11.9
2023-03-30T14:19:08.140Z,11.8
2023-03-30T14:21:05.141Z,11.9
2023-03-30T14:27:07.512Z,12
2023-03-30T14:29:06.010Z,12
2023-03-30T14:31:04.785Z,12
2023-03-30T14:33:04.781Z,12.1
2023-03-30T14:35:04.788Z,12
2023-03-30T14:37:05.215Z,12
2023-03-30T14:39:06.671Z,12
2023-03-30T14:41:05.082Z,12.1
2023-03-30T14:43:12.586Z,12.1
2023-03-30T14:45:04.829Z,12.2
2023-03-30T14:47:04.767Z,12.8
2023-03-30T14:49:05.008Z,12.9
2023-03-30T14:51:05.182Z,13
2023-03-30T14:53:04.755Z,13
2023-03-30T14:55:08.164Z,13
2023-03-30T14:57:06.953Z,13.1
2023-03-30T15:01:06.240Z,13.2
2023-03-30T15:03:04.753Z,13.2
2023-03-30T15:07:07.865Z,13.1
2023-03-30T15:09:04.744Z,12.9
2023-03-30T15:11:05.003Z,13
2023-03-30T15:13:04.732Z,13.1
2023-03-30T15:15:04.780Z,13.1
2023-03-30T15:17:04.804Z,13.2
2023-03-30T15:19:06.498Z,13.3
2023-03-30T15:21:07.788Z,13.3
2023-03-30T15:23:04.744Z,13.3
2023-03-30T15:25:04.729Z,13.4
2023-03-30T15:27:04.758Z,13.3
2023-03-30T15:29:04.740Z,13.4
2023-03-30T15:31:04.950Z,13.4
2023-03-30T15:33:04.780Z,13.4
2023-03-30T15:35:04.749Z,13.4
2023-03-30T15:37:04.754Z,13.4
2023-03-30T15:39:04.741Z,13.4
2023-03-30T15:41:04.924Z,13.4
2023-03-30T15:43:06.141Z,13.4
2023-03-30T15:45:05.188Z,13.4
2023-03-30T15:47:04.826Z,13.4
2023-03-30T15:49:04.854Z,13.4
2023-03-30T15:51:04.995Z,13.4
2023-03-30T15:53:04.825Z,13.5
2023-03-30T15:55:18.952Z,13.5
2023-03-30T15:57:05.316Z,13.5
2023-03-30T15:59:16.183Z,13.5
2023-03-30T16:01:07.837Z,13.5
2023-03-30T16:03:06.022Z,13.5
2023-03-30T16:07:05.192Z,13.5
2023-03-30T16:09:08.179Z,13.5
2023-03-30T16:11:04.925Z,13.5
2023-03-30T16:13:05.461Z,13.5
2023-03-30T16:15:04.887Z,13.5
2023-03-30T16:19:04.760Z,13.5
2023-03-30T16:21:06.067Z,13.3
2023-03-30T16:23:05.016Z,13.2
2023-03-30T16:27:04.855Z,13.1
2023-03-30T16:29:04.814Z,13.1
2023-03-30T16:31:04.986Z,13.2
2023-03-30T16:33:05.135Z,13.2
2023-03-30T16:35:05.721Z,13.3
2023-03-30T16:37:07.538Z,13.3
2023-03-30T16:39:04.745Z,13.3
2023-03-30T16:41:05.087Z,13.3
2023-03-30T16:43:08.608Z,13.3
2023-03-30T16:45:06.029Z,13.2
2023-03-30T16:47:07.905Z,12.9
2023-03-30T16:49:12.262Z,12.9
2023-03-30T16:51:05.075Z,13
2023-03-30T16:53:04.997Z,13.2
2023-03-30T16:55:08.328Z,13.3
2023-03-30T16:57:06.174Z,13.3
2023-03-30T17:01:06.114Z,13.3
2023-03-30T17:03:04.772Z,13.3
2023-03-30T17:07:04.810Z,13.2
2023-03-30T17:09:04.748Z,13.1
2023-03-30T17:11:06.115Z,13.1
2023-03-30T17:13:04.839Z,12.8
2023-03-30T17:15:07.584Z,12.6
2023-03-30T17:17:04.812Z,12.6
2023-03-30T17:19:09.016Z,12.4
2023-03-30T17:23:07.528Z,12.3
2023-03-30T17:25:06.035Z,12.1
2023-03-30T17:27:07.545Z,12
2023-03-30T17:29:06.027Z,11.9
2023-03-30T17:31:07.826Z,11.9
2023-03-30T17:33:07.529Z,11.8
2023-03-30T17:37:04.744Z,11.6
2023-03-30T17:39:04.846Z,11.6
2023-03-30T17:41:05.372Z,11.6
2023-03-30T17:43:06.093Z,11.4
2023-03-30T17:45:04.743Z,11.3
2023-03-30T17:47:05.509Z,11.3
2023-03-30T17:49:06.781Z,11.3
2023-03-30T17:51:04.913Z,11.3
2023-03-30T17:53:04.785Z,11.2
2023-03-30T17:55:06.108Z,11.1
2023-03-30T17:57:04.782Z,11
2023-03-30T17:59:04.770Z,10.9
2023-03-30T18:01:05.672Z,10.9
2023-03-30T18:05:04.829Z,10.7
2023-03-30T18:07:07.671Z,10.7
2023-03-30T18:09:04.754Z,10.7
2023-03-30T18:11:04.985Z,10.7
2023-03-30T18:13:05.306Z,10.9
2023-03-30T18:17:07.164Z,10.9
2023-03-30T18:19:04.909Z,10.7
2023-03-30T18:21:05.434Z,10.6
2023-03-30T18:23:04.748Z,10.7
2023-03-30T18:25:06.063Z,10.5
2023-03-30T18:27:05.138Z,10.5
2023-03-30T18:29:05.258Z,10.8
2023-03-30T18:31:04.843Z,10.7
2023-03-30T18:33:04.808Z,10.5
2023-03-30T18:35:06.030Z,10.5
2023-03-30T18:37:04.797Z,10.3
2023-03-30T18:39:04.766Z,10.3
2023-03-30T18:41:04.776Z,10.3
2023-03-30T18:43:05.526Z,10.2
2023-03-30T18:45:05.047Z,10.1
2023-03-30T18:47:04.784Z,10.1
2023-03-30T18:49:04.882Z,10
2023-03-30T18:51:04.776Z,9.9
2023-03-30T18:53:05.030Z,9.9
2023-03-30T18:55:07.762Z,9.9
2023-03-30T18:57:04.810Z,9.9
2023-03-30T18:59:05.126Z,9.8
2023-03-30T19:01:04.784Z,9.7
2023-03-30T19:03:04.875Z,9.7
2023-03-30T19:05:05.146Z,9.7
2023-03-30T19:07:05.234Z,9.8
2023-03-30T19:09:04.780Z,9.8
2023-03-30T19:11:04.783Z,9.6
2023-03-30T19:13:04.832Z,9.6
2023-03-30T19:15:11.767Z,9.6
2023-03-30T19:17:04.788Z,9.7
2023-03-30T19:19:04.813Z,9.6
2023-03-30T19:21:05.049Z,9.5
2023-03-30T19:23:04.775Z,9.6
2023-03-30T19:25:05.482Z,9.5
2023-03-30T19:27:04.873Z,9.4
2023-03-30T19:29:04.758Z,9.4
2023-03-30T19:31:04.939Z,9.4
2023-03-30T19:33:04.821Z,9.3
2023-03-30T19:35:04.795Z,9.3
2023-03-30T19:37:07.336Z,9.6
2023-03-30T19:39:07.858Z,9.4
2023-03-30T19:41:05.105Z,9.4
2023-03-30T19:43:04.859Z,9.4
2023-03-30T19:45:04.764Z,9.4
2023-03-30T19:47:06.067Z,9.3
2023-03-30T19:49:04.769Z,9.2
2023-03-30T19:53:04.785Z,9.4
2023-03-30T19:55:04.798Z,9.2
2023-03-30T19:57:04.823Z,9.1
2023-03-30T19:59:04.760Z,9.3
2023-03-30T20:01:04.910Z,9.3
2023-03-30T20:03:05.160Z,9.2
2023-03-30T20:05:05.268Z,9.1
2023-03-30T20:07:04.775Z,9.3
2023-03-30T20:09:07.350Z,9.5
2023-03-30T20:11:04.917Z,9.3
2023-03-30T20:13:04.773Z,9.3
2023-03-30T20:15:05.511Z,9.3
2023-03-30T20:17:04.923Z,9.3
2023-03-30T20:19:10.751Z,9.3
2023-03-30T20:21:05.003Z,9.3
2023-03-30T20:23:04.780Z,9.2
2023-03-30T20:25:04.799Z,9.2
2023-03-30T20:27:04.786Z,9.3
2023-03-30T20:31:04.973Z,9
2023-03-30T20:33:08.261Z,9
2023-03-30T20:35:05.496Z,8.9
2023-03-30T20:37:04.859Z,8.8
2023-03-30T20:39:04.884Z,8.7
2023-03-30T20:41:05.536Z,8.7
2023-03-30T20:43:04.850Z,8.7
2023-03-30T20:45:04.880Z,8.8
2023-03-30T20:47:04.866Z,8.8
2023-03-30T20:49:05.583Z,8.8
2023-03-30T20:51:05.103Z,8.8
2023-03-30T20:53:04.771Z,8.8
2023-03-30T20:55:04.779Z,8.7
2023-03-30T20:59:04.902Z,8.7
2023-03-30T21:01:05.056Z,8.6
2023-03-30T21:05:04.910Z,8.6
2023-03-30T21:07:04.856Z,8.7
2023-03-30T21:09:04.833Z,8.7
2023-03-30T21:11:04.967Z,8.7
2023-03-30T21:13:05.038Z,8.7
2023-03-30T21:15:04.814Z,8.7
2023-03-30T21:17:04.838Z,8.6
2023-03-30T21:19:05.224Z,8.6
2023-03-30T21:21:05.539Z,8.6
2023-03-30T21:23:04.854Z,8.6
2023-03-30T21:25:04.924Z,8.5
2023-03-30T21:27:04.897Z,8.5
2023-03-30T21:29:04.934Z,8.5
2023-03-30T21:31:05.388Z,8.5
2023-03-30T21:33:04.825Z,8.4
2023-03-30T21:35:04.875Z,8.4
2023-03-30T21:37:05.412Z,8.2
2023-03-30T21:39:04.791Z,8.1
2023-03-30T21:41:04.780Z,8.1
2023-03-30T21:43:04.800Z,8.4
2023-03-30T21:45:04.798Z,8.5
2023-03-30T21:47:04.765Z,8.4
2023-03-30T21:49:05.162Z,8.5
2023-03-30T21:51:04.812Z,8.4
2023-03-30T21:53:04.868Z,8.4
2023-03-30T21:55:04.783Z,8.5
2023-03-30T21:57:05.586Z,8.5
2023-03-30T21:59:04.774Z,8.6
2023-03-30T22:01:12.126Z,8.6
2023-03-30T22:03:05.149Z,8.6
2023-03-30T22:05:05.359Z,8.7
2023-03-30T22:09:04.767Z,8.4
2023-03-30T22:11:05.318Z,8.5
2023-03-30T22:13:05.543Z,8.5
2023-03-30T22:15:04.871Z,8.5
2023-03-30T22:17:04.792Z,8.6
2023-03-30T22:19:04.791Z,8.7
2023-03-30T22:21:05.003Z,8.7
2023-03-30T22:23:04.787Z,8.8
2023-03-30T22:27:04.847Z,8.7
2023-03-30T22:29:05.652Z,8.7
2023-03-30T22:31:04.875Z,8.7
2023-03-30T22:33:04.796Z,8.7
2023-03-30T22:35:05.538Z,8.8
2023-03-30T22:37:05.312Z,8.7
2023-03-30T22:39:05.233Z,8.5
2023-03-30T22:41:07.505Z,8.4
2023-03-30T22:43:04.797Z,8.5
2023-03-30T22:45:04.771Z,8.5
2023-03-30T22:49:04.909Z,8.4
2023-03-30T22:51:05.166Z,8.4
2023-03-30T22:55:04.841Z,8.4
2023-03-30T22:57:04.836Z,8.3
2023-03-30T22:59:04.777Z,8.2
2023-03-30T23:01:05.568Z,8.2
2023-03-30T23:03:04.927Z,8.1
2023-03-30T23:05:04.766Z,8.1
2023-03-30T23:07:04.786Z,8.1
2023-03-30T23:09:05.225Z,8.1
2023-03-30T23:11:05.173Z,8.2
2023-03-30T23:13:04.806Z,8.2
2023-03-30T23:15:04.859Z,8.2
2023-03-30T23:17:04.803Z,8.1
2023-03-30T23:19:04.775Z,8.2
2023-03-30T23:21:04.825Z,8.2
2023-03-30T23:23:04.785Z,8.1
2023-03-30T23:25:04.785Z,8.1
2023-03-30T23:27:05.510Z,8.1
2023-03-30T23:29:05.356Z,8.1
2023-03-30T23:31:04.793Z,8.1
2023-03-30T23:33:04.829Z,8
2023-03-30T23:35:04.809Z,8.1
2023-03-30T23:37:04.803Z,8.2
2023-03-30T23:39:04.768Z,8
2023-03-30T23:41:04.910Z,8.1
2023-03-30T23:43:04.770Z,8.1
2023-03-30T23:45:05.138Z,8
2023-03-30T23:47:05.600Z,8
2023-03-30T23:49:04.767Z,8.1
2023-03-30T23:51:04.782Z,8
2023-03-30T23:53:04.813Z,7.9
2023-03-30T23:55:04.809Z,8
2023-03-30T23:57:04.798Z,8
2023-03-30T23:59:04.802Z,8
